createdAt,value
2018-07-02T00:00:57.982Z,0.60
2018-07-02T00:03:26.453Z,0.88
2018-07-02T00:06:06.047Z,1.95
2018-07-02T00:08:34.037Z,0.80
2018-07-02T00:11:02.375Z,1.50
2018-07-02T00:13:30.633Z,1.67
2018-07-02T00:15:59.522Z,2.35
2018-07-02T00:18:27.758Z,0.82
2018-07-02T00:20:55.989Z,1.85
2018-07-02T00:23:26.498Z,2.05
2018-07-02T00:25:54.808Z,1.00
2018-07-02T00:28:22.971Z,1.35
2018-07-02T00:30:51.266Z,1.07
2018-07-02T00:33:19.490Z,0.80
2018-07-02T00:35:47.719Z,1.10
2018-07-02T00:38:16.985Z,0.95
2018-07-02T00:40:45.220Z,2.50
2018-07-02T00:43:13.457Z,1.90
2018-07-02T00:45:42.119Z,1.10
2018-07-02T00:48:10.347Z,1.25
2018-07-02T00:50:38.592Z,0.80
2018-07-02T00:53:06.881Z,0.50
2018-07-02T00:55:35.097Z,1.00
2018-07-02T00:58:03.321Z,0.78
2018-07-02T01:00:32.411Z,0.78
2018-07-02T01:03:00.638Z,1.00
2018-07-02T01:05:28.874Z,1.17
2018-07-02T01:07:57.150Z,1.40
2018-07-02T01:10:25.376Z,1.17
2018-07-02T01:12:53.602Z,1.20
2018-07-02T01:15:21.879Z,0.50
2018-07-02T01:17:49.906Z,0.72
2018-07-02T01:20:18.138Z,0.88
2018-07-02T01:22:46.383Z,0.70
2018-07-02T01:25:15.034Z,1.05
2018-07-02T01:27:43.271Z,1.32
2018-07-02T01:30:11.923Z,0.93
2018-07-02T01:32:40.167Z,1.47
2018-07-02T01:35:08.634Z,1.45
2018-07-02T01:37:36.961Z,1.02
2018-07-02T01:40:05.184Z,0.57
2018-07-02T01:42:33.406Z,1.22
2018-07-02T01:45:02.708Z,1.22
2018-07-02T01:47:30.926Z,0.70
2018-07-02T01:49:59.209Z,0.50
2018-07-02T01:52:28.046Z,1.05
2018-07-02T01:54:56.301Z,1.40
2018-07-02T01:57:24.537Z,0.75
2018-07-02T01:59:53.074Z,0.90
2018-07-02T02:02:21.305Z,0.37
2018-07-02T02:04:49.538Z,1.40
2018-07-02T02:07:18.123Z,0.80
2018-07-02T02:09:46.362Z,1.02
2018-07-02T02:12:14.579Z,0.90
2018-07-02T02:14:42.875Z,1.02
2018-07-02T02:17:11.123Z,1.67
2018-07-02T02:19:39.354Z,1.00
2018-07-02T02:22:07.991Z,1.00
2018-07-02T02:24:36.267Z,0.80
2018-07-02T02:27:05.823Z,0.68
2018-07-02T02:29:34.071Z,0.60
2018-07-02T02:32:02.310Z,1.47
2018-07-02T02:34:30.800Z,1.02
2018-07-02T02:36:59.044Z,0.98
2018-07-02T02:39:27.289Z,0.40
2018-07-02T02:41:56.046Z,1.17
2018-07-02T02:44:24.314Z,1.10
2018-07-02T02:46:52.549Z,0.75
2018-07-02T02:49:21.440Z,0.50
2018-07-02T02:51:49.678Z,0.90
2018-07-02T02:54:17.927Z,0.60
2018-07-02T02:56:46.209Z,0.65
2018-07-02T02:59:14.457Z,0.62
2018-07-02T03:01:42.681Z,0.60
2018-07-02T03:04:14.829Z,0.88
2018-07-02T03:06:43.054Z,0.50
2018-07-02T03:09:11.815Z,0.50
2018-07-02T03:11:40.082Z,0.50
2018-07-02T03:14:08.358Z,0.80
2018-07-02T03:16:36.594Z,0.75
2018-07-02T03:19:05.025Z,0.68
2018-07-02T03:21:33.248Z,0.40
2018-07-02T03:24:01.503Z,0.40
2018-07-02T03:26:30.314Z,0.72
2018-07-02T03:28:59.883Z,1.40
2018-07-02T03:31:28.114Z,0.50
2018-07-02T03:33:56.376Z,0.65
2018-07-02T03:36:24.625Z,0.50
2018-07-02T03:38:52.922Z,0.82
2018-07-02T03:41:21.150Z,0.62
2018-07-02T03:43:49.385Z,0.68
2018-07-02T03:46:18.198Z,0.68
2018-07-02T03:48:46.436Z,0.88
2018-07-02T03:51:14.753Z,0.93
2018-07-02T03:53:43.441Z,0.65
2018-07-02T03:56:11.678Z,0.68
2018-07-02T03:58:39.922Z,0.53
2018-07-02T04:01:08.343Z,0.57
2018-07-02T04:03:36.577Z,0.40
2018-07-02T04:06:04.826Z,0.72
2018-07-02T04:08:34.238Z,0.40
2018-07-02T04:11:02.473Z,0.50
2018-07-02T04:13:30.715Z,0.62
2018-07-02T04:15:59.166Z,1.82
2018-07-02T04:18:27.408Z,0.57
2018-07-02T04:20:55.633Z,0.45
2018-07-02T04:23:23.993Z,0.42
2018-07-02T04:25:52.251Z,0.50
2018-07-02T04:28:20.482Z,1.25
2018-07-02T04:30:49.438Z,0.60
2018-07-02T04:33:17.714Z,0.70
2018-07-02T04:35:45.960Z,0.40
2018-07-02T04:38:14.256Z,0.95
2018-07-02T04:40:42.499Z,0.80
2018-07-02T04:43:10.736Z,0.42
2018-07-02T04:45:39.012Z,0.47
2018-07-02T04:48:07.239Z,0.50
2018-07-02T04:50:35.486Z,0.40
2018-07-02T04:53:04.343Z,0.60
2018-07-02T04:55:32.775Z,1.07
2018-07-02T04:58:01.374Z,0.60
2018-07-02T05:00:29.651Z,1.40
2018-07-02T05:02:57.877Z,0.75
2018-07-02T05:05:26.149Z,0.57
2018-07-02T05:07:54.849Z,0.88
2018-07-02T05:10:23.145Z,1.75
2018-07-02T05:12:51.527Z,2.25
2018-07-02T05:15:20.746Z,0.98
2018-07-02T05:17:49.024Z,0.57
2018-07-02T05:20:17.258Z,0.82
2018-07-02T05:22:45.550Z,0.55
2018-07-02T05:25:13.784Z,0.45
2018-07-02T05:27:42.039Z,0.68
2018-07-02T05:30:10.521Z,0.68
2018-07-02T05:32:39.866Z,1.40
2018-07-02T05:35:08.124Z,0.90
2018-07-02T05:37:36.590Z,1.52
2018-07-02T05:40:04.845Z,0.78
2018-07-02T05:42:33.095Z,0.57
2018-07-02T05:45:01.746Z,0.75
2018-07-02T05:47:29.982Z,1.37
2018-07-02T05:49:58.226Z,0.85
2018-07-02T05:52:27.177Z,2.00
2018-07-02T05:54:55.499Z,0.40
2018-07-02T05:57:23.676Z,0.40
2018-07-02T05:59:52.426Z,0.70
2018-07-02T06:02:20.665Z,0.40
2018-07-02T06:04:49.015Z,0.75
2018-07-02T06:07:21.265Z,0.50
2018-07-02T06:09:49.492Z,1.60
2018-07-02T06:12:18.316Z,0.70
2018-07-02T06:14:46.798Z,0.53
2018-07-02T06:17:15.030Z,0.75
2018-07-02T06:19:43.339Z,0.53
2018-07-02T06:22:11.787Z,0.70
2018-07-02T06:24:40.062Z,6.40
2018-07-02T06:27:08.275Z,3.90
2018-07-02T06:29:37.078Z,4.60
2018-07-02T06:32:05.814Z,3.55
2018-07-02T06:34:34.908Z,4.12
2018-07-02T06:37:03.183Z,4.20
2018-07-02T06:39:31.128Z,6.72
2018-07-02T06:41:59.945Z,8.00
2018-07-02T06:44:28.442Z,2.00
2018-07-02T06:46:56.715Z,2.95
2018-07-02T06:49:25.136Z,7.25
2018-07-02T06:51:53.371Z,2.40
2018-07-02T06:54:21.586Z,3.70
2018-07-02T06:56:50.579Z,1.65
2018-07-02T06:59:18.801Z,6.22
2018-07-02T07:01:47.482Z,8.33
2018-07-02T07:04:16.137Z,6.85
2018-07-02T07:06:44.371Z,7.28
2018-07-02T07:09:12.618Z,5.35
2018-07-02T07:11:41.377Z,3.35
2018-07-02T07:14:09.628Z,6.90
2018-07-02T07:16:37.862Z,6.05
2018-07-02T07:19:06.294Z,5.72
2018-07-02T07:21:34.524Z,3.90
2018-07-02T07:24:02.749Z,6.83
2018-07-02T07:26:31.117Z,7.67
2018-07-02T07:28:59.391Z,4.53
2018-07-02T07:31:27.632Z,5.83
2018-07-02T07:33:56.779Z,7.50
2018-07-02T07:36:26.011Z,4.42
2018-07-02T07:38:54.227Z,3.40
2018-07-02T07:41:22.630Z,8.75
2018-07-02T07:43:51.054Z,10.23
2018-07-02T07:46:19.700Z,8.10
2018-07-02T07:48:47.923Z,10.58
2018-07-02T07:51:16.158Z,8.18
2018-07-02T07:53:44.834Z,11.78
2018-07-02T07:56:13.094Z,9.58
2018-07-02T07:58:41.316Z,5.83
2018-07-02T08:01:10.141Z,13.00
2018-07-02T08:03:38.404Z,8.90
2018-07-02T08:06:06.609Z,6.50
2018-07-02T08:08:37.446Z,3.83
2018-07-02T08:11:05.898Z,5.37
2018-07-02T08:13:34.133Z,7.58
2018-07-02T08:16:02.814Z,5.90
2018-07-02T08:18:31.227Z,5.00
2018-07-02T08:20:59.474Z,6.65
2018-07-02T08:23:27.969Z,3.87
2018-07-02T08:25:56.210Z,3.98
2018-07-02T08:28:24.431Z,4.95
2018-07-02T08:30:52.673Z,2.52
2018-07-02T08:33:20.901Z,3.15
2018-07-02T08:35:49.148Z,3.83
2018-07-02T08:38:17.810Z,3.25
2018-07-02T08:40:46.058Z,4.40
2018-07-02T08:43:14.290Z,3.50
2018-07-02T08:45:42.541Z,2.15
2018-07-02T08:48:10.786Z,4.25
2018-07-02T08:50:39.030Z,3.05
2018-07-02T08:53:08.503Z,3.10
2018-07-02T08:55:36.751Z,2.83
2018-07-02T08:58:05.098Z,2.87
2018-07-02T09:00:33.925Z,2.52
2018-07-02T09:03:02.184Z,4.37
2018-07-02T09:05:30.428Z,1.50
2018-07-02T09:08:00.220Z,2.62
2018-07-02T09:10:28.720Z,2.80
2018-07-02T09:12:56.950Z,3.20
2018-07-02T09:15:25.447Z,3.10
2018-07-02T09:17:53.679Z,2.10
2018-07-02T09:20:21.931Z,1.60
2018-07-02T09:22:50.373Z,2.40
2018-07-02T09:25:18.812Z,1.27
2018-07-02T09:27:46.984Z,2.75
2018-07-02T09:30:16.951Z,4.67
2018-07-02T09:32:45.218Z,2.72
2018-07-02T09:35:13.487Z,3.50
2018-07-02T09:37:42.087Z,2.20
2018-07-02T09:40:10.343Z,2.40
2018-07-02T09:42:38.616Z,2.98
2018-07-02T09:45:07.435Z,2.70
2018-07-02T09:47:35.671Z,3.02
2018-07-02T09:50:04.156Z,1.25
2018-07-02T09:52:32.254Z,1.52
2018-07-02T09:55:00.583Z,2.02
2018-07-02T09:57:28.810Z,1.75
2018-07-02T09:59:59.750Z,2.90
2018-07-02T10:02:27.980Z,1.55
2018-07-02T10:04:56.242Z,2.33
2018-07-02T10:07:30.520Z,1.75
2018-07-02T10:09:58.826Z,0.90
2018-07-02T10:12:27.736Z,1.37
2018-07-02T10:14:56.065Z,3.92
2018-07-02T10:17:24.310Z,1.00
2018-07-02T10:19:52.619Z,1.17
2018-07-02T10:22:20.843Z,2.08
2018-07-02T10:24:49.115Z,3.15
2018-07-02T10:27:17.566Z,1.75
2018-07-02T10:29:45.825Z,1.70
2018-07-02T10:32:14.103Z,1.15
2018-07-02T10:34:43.032Z,1.57
2018-07-02T10:37:11.278Z,3.72
2018-07-02T10:39:39.506Z,1.12
2018-07-02T10:42:07.934Z,1.12
2018-07-02T10:44:36.187Z,1.92
2018-07-02T10:47:04.436Z,1.20
2018-07-02T10:49:34.502Z,1.45
2018-07-02T10:52:02.762Z,0.70
2018-07-02T10:54:31.005Z,1.90
2018-07-02T10:56:59.307Z,1.20
2018-07-02T10:59:27.563Z,1.05
2018-07-02T11:01:55.995Z,1.45
2018-07-02T11:04:24.374Z,1.42
2018-07-02T11:06:52.610Z,0.80
2018-07-02T11:09:24.009Z,1.35
2018-07-02T11:11:52.276Z,1.25
2018-07-02T11:14:20.900Z,2.60
2018-07-02T11:16:49.446Z,2.25
2018-07-02T11:19:17.694Z,1.22
2018-07-02T11:21:45.969Z,1.60
2018-07-02T11:24:15.095Z,1.77
2018-07-02T11:26:43.356Z,0.65
2018-07-02T11:29:11.614Z,1.17
2018-07-02T11:31:40.230Z,0.72
2018-07-02T11:34:08.483Z,1.25
2018-07-02T11:36:36.716Z,2.05
2018-07-02T11:39:08.175Z,1.35
2018-07-02T11:41:36.434Z,1.37
2018-07-02T11:44:04.736Z,0.90
2018-07-02T11:46:34.059Z,1.52
2018-07-02T11:49:02.318Z,0.98
2018-07-02T11:51:30.513Z,2.72
2018-07-02T11:53:59.537Z,1.07
2018-07-02T11:56:27.775Z,1.50
2018-07-02T11:58:56.033Z,2.33
2018-07-02T12:01:24.570Z,1.00
2018-07-02T12:03:52.820Z,1.57
2018-07-02T12:06:21.087Z,1.40
2018-07-02T12:08:54.326Z,2.50
2018-07-02T12:11:22.586Z,1.92
2018-07-02T12:13:50.875Z,1.80
2018-07-02T12:16:19.357Z,1.42
2018-07-02T12:18:47.645Z,3.80
2018-07-02T12:21:15.922Z,3.20
2018-07-02T12:23:44.216Z,3.05
2018-07-02T12:26:12.504Z,3.33
2018-07-02T12:28:40.686Z,5.10
2018-07-02T12:31:09.627Z,2.72
2018-07-02T12:33:37.887Z,1.20
2018-07-02T12:36:06.183Z,6.65
2018-07-02T12:38:34.895Z,4.83
2018-07-02T12:41:03.135Z,4.83
2018-07-02T12:43:31.402Z,4.60
2018-07-02T12:45:59.903Z,9.28
2018-07-02T12:48:28.157Z,6.20
2018-07-02T12:50:56.397Z,6.35
2018-07-02T12:53:25.454Z,8.65
2018-07-02T12:55:53.705Z,6.55
2018-07-02T12:58:21.944Z,6.10
2018-07-02T13:00:50.376Z,10.25
2018-07-02T13:03:18.682Z,7.37
2018-07-02T13:05:46.926Z,7.70
2018-07-02T13:08:16.858Z,4.70
2018-07-02T13:10:45.170Z,6.78
2018-07-02T13:13:13.415Z,5.47
2018-07-02T13:15:41.995Z,4.72
2018-07-02T13:18:10.250Z,6.97
2018-07-02T13:20:38.551Z,4.95
2018-07-02T13:23:07.031Z,5.60
2018-07-02T13:25:35.259Z,13.25
2018-07-02T13:28:03.512Z,6.20
2018-07-02T13:30:32.987Z,4.53
2018-07-02T13:33:01.241Z,6.33
2018-07-02T13:35:29.485Z,4.15
2018-07-02T13:37:58.032Z,6.17
2018-07-02T13:40:26.262Z,3.45
2018-07-02T13:42:54.495Z,4.75
2018-07-02T13:45:22.750Z,6.30
2018-07-02T13:47:51.003Z,9.45
2018-07-02T13:50:19.298Z,3.52
2018-07-02T13:52:48.117Z,4.20
2018-07-02T13:55:16.367Z,3.15
2018-07-02T13:57:44.627Z,4.53
2018-07-02T14:00:14.027Z,7.42
2018-07-02T14:02:42.219Z,5.45
2018-07-02T14:05:10.643Z,2.80
2018-07-02T14:07:39.910Z,5.42
2018-07-02T14:10:08.167Z,4.97
2018-07-02T14:12:36.477Z,3.45
2018-07-02T14:15:05.982Z,3.25
2018-07-02T14:17:34.257Z,5.58
2018-07-02T14:20:02.570Z,2.67
2018-07-02T14:22:30.788Z,2.20
2018-07-02T14:24:59.004Z,2.50
2018-07-02T14:27:28.142Z,1.92
2018-07-02T14:29:57.159Z,1.82
2018-07-02T14:32:25.412Z,2.72
2018-07-02T14:34:53.648Z,4.22
2018-07-02T14:37:22.208Z,3.98
2018-07-02T14:39:50.479Z,3.25
2018-07-02T14:42:18.749Z,1.72
2018-07-02T14:44:47.143Z,1.45
2018-07-02T14:47:15.350Z,3.58
2018-07-02T14:49:43.613Z,1.85
2018-07-02T14:52:12.466Z,3.52
2018-07-02T14:54:40.734Z,1.62
2018-07-02T14:57:08.974Z,3.47
2018-07-02T14:59:37.400Z,1.85
2018-07-02T15:02:05.831Z,3.15
2018-07-02T15:04:34.072Z,3.05
2018-07-02T15:07:02.640Z,3.45
2018-07-02T15:09:32.554Z,1.30
2018-07-02T15:12:00.796Z,1.85
2018-07-02T15:14:29.098Z,3.20
2018-07-02T15:16:57.342Z,2.40
2018-07-02T15:19:25.582Z,1.80
2018-07-02T15:21:54.353Z,1.35
2018-07-02T15:24:22.929Z,1.75
2018-07-02T15:26:51.202Z,2.70
2018-07-02T15:29:20.001Z,3.10
2018-07-02T15:31:48.289Z,1.07
2018-07-02T15:34:16.532Z,1.17
2018-07-02T15:36:44.815Z,2.37
2018-07-02T15:39:13.076Z,3.83
2018-07-02T15:41:41.343Z,2.60
2018-07-02T15:44:09.623Z,1.35
2018-07-02T15:46:37.885Z,2.98
2018-07-02T15:49:06.390Z,3.20
2018-07-02T15:51:35.486Z,4.12
2018-07-02T15:54:03.730Z,3.42
2018-07-02T15:56:31.984Z,3.35
2018-07-02T15:59:00.291Z,0.90
2018-07-02T16:01:28.523Z,1.32
2018-07-02T16:03:56.970Z,1.47
2018-07-02T16:06:25.290Z,1.70
2018-07-02T16:08:56.126Z,1.60
2018-07-02T16:11:24.365Z,2.67
2018-07-02T16:13:52.770Z,3.17
2018-07-02T16:16:21.028Z,2.33
2018-07-02T16:18:49.249Z,2.67
2018-07-02T16:21:17.578Z,3.00
2018-07-02T16:23:45.842Z,4.10
2018-07-02T16:26:14.320Z,3.70
2018-07-02T16:28:44.071Z,6.25
2018-07-02T16:31:12.317Z,3.65
2018-07-02T16:33:40.559Z,3.40
2018-07-02T16:36:09.003Z,4.75
2018-07-02T16:38:37.246Z,3.85
2018-07-02T16:41:05.655Z,5.10
2018-07-02T16:43:34.344Z,6.05
2018-07-02T16:46:02.606Z,5.58
2018-07-02T16:48:30.915Z,2.45
2018-07-02T16:51:00.206Z,2.62
2018-07-02T16:53:28.470Z,7.55
2018-07-02T16:55:56.736Z,9.93
2018-07-02T16:58:25.047Z,9.05
2018-07-02T17:00:53.322Z,8.45
2018-07-02T17:03:21.557Z,6.10
2018-07-02T17:05:50.786Z,8.15
2018-07-02T17:08:20.807Z,7.92
2018-07-02T17:10:49.070Z,8.58
2018-07-02T17:13:17.423Z,8.65
2018-07-02T17:15:45.637Z,9.93
2018-07-02T17:18:13.897Z,5.58
2018-07-02T17:20:42.393Z,8.50
2018-07-02T17:23:10.650Z,11.08
2018-07-02T17:25:38.895Z,12.68
2018-07-02T17:28:07.833Z,7.90
2018-07-02T17:30:36.074Z,6.17
2018-07-02T17:33:04.525Z,7.22
2018-07-02T17:35:33.701Z,5.85
2018-07-02T17:38:01.958Z,5.55
2018-07-02T17:40:30.209Z,4.75
2018-07-02T17:42:59.030Z,6.35
2018-07-02T17:45:27.284Z,4.58
2018-07-02T17:47:55.615Z,5.47
2018-07-02T17:50:24.578Z,5.42
2018-07-02T17:52:52.842Z,8.68
2018-07-02T17:55:21.139Z,10.05
2018-07-02T17:57:49.939Z,12.30
2018-07-02T18:00:18.190Z,12.47
2018-07-02T18:02:46.442Z,12.90
2018-07-02T18:05:15.175Z,10.03
2018-07-02T18:07:45.288Z,20.68
2018-07-02T18:10:13.537Z,15.95
2018-07-02T18:12:42.144Z,19.45
2018-07-02T18:15:10.436Z,18.57
2018-07-02T18:17:38.707Z,10.82
2018-07-02T18:20:07.318Z,14.30
2018-07-02T18:22:35.639Z,15.10
2018-07-02T18:25:03.941Z,13.83
2018-07-02T18:27:32.911Z,10.85
2018-07-02T18:30:01.215Z,10.88
2018-07-02T18:32:29.477Z,11.05
2018-07-02T18:34:58.270Z,9.58
2018-07-02T18:37:26.555Z,10.90
2018-07-02T18:39:54.831Z,17.23
2018-07-02T18:42:23.131Z,8.50
2018-07-02T18:44:51.398Z,13.85
2018-07-02T18:47:19.638Z,10.75
2018-07-02T18:49:48.666Z,17.67
2018-07-02T18:52:16.907Z,8.80
2018-07-02T18:54:45.170Z,14.40
2018-07-02T18:57:13.693Z,9.13
2018-07-02T18:59:41.944Z,7.72
2018-07-02T19:02:10.237Z,16.52
2018-07-02T19:04:38.826Z,9.28
2018-07-02T19:07:07.124Z,12.50
2018-07-02T19:09:37.746Z,13.62
2018-07-02T19:12:06.076Z,11.38
2018-07-02T19:14:34.324Z,9.85
2018-07-02T19:17:03.607Z,6.97
2018-07-02T19:19:31.837Z,14.78
2018-07-02T19:22:00.074Z,10.50
2018-07-02T19:24:29.443Z,9.63
2018-07-02T19:26:57.718Z,7.87
2018-07-02T19:29:26.054Z,11.90
2018-07-02T19:31:54.290Z,11.48
2018-07-02T19:34:22.527Z,9.85
2018-07-02T19:36:50.789Z,9.48
2018-07-02T19:39:19.523Z,13.68
2018-07-02T19:41:47.836Z,11.65
2018-07-02T19:44:16.202Z,9.60
2018-07-02T19:46:44.921Z,12.98
2018-07-02T19:49:13.243Z,9.28
2018-07-02T19:51:41.520Z,9.53
2018-07-02T19:54:10.021Z,10.85
2018-07-02T19:56:38.317Z,15.03
2018-07-02T19:59:06.541Z,10.65
2018-07-02T20:01:34.843Z,11.80
2018-07-02T20:04:03.110Z,10.53
2018-07-02T20:06:31.391Z,9.75
2018-07-02T20:09:01.504Z,11.43
2018-07-02T20:11:30.087Z,10.75
2018-07-02T20:13:58.339Z,7.15
2018-07-02T20:16:26.843Z,9.25
2018-07-02T20:18:55.193Z,7.47
2018-07-02T20:21:23.406Z,7.12
2018-07-02T20:23:51.797Z,7.92
2018-07-02T20:26:20.011Z,9.58
2018-07-02T20:28:49.000Z,4.50
2018-07-02T20:31:17.287Z,10.20
2018-07-02T20:33:45.535Z,7.58
2018-07-02T20:36:13.790Z,6.10
2018-07-02T20:38:43.074Z,4.58
2018-07-02T20:41:11.347Z,10.15
2018-07-02T20:43:39.622Z,6.33
2018-07-02T20:46:08.414Z,5.50
2018-07-02T20:48:36.839Z,6.00
2018-07-02T20:51:05.087Z,10.25
2018-07-02T20:53:33.944Z,3.52
2018-07-02T20:56:02.136Z,6.62
2018-07-02T20:58:30.364Z,8.98
2018-07-02T21:00:58.680Z,6.87
2018-07-02T21:03:27.026Z,6.35
2018-07-02T21:05:55.337Z,4.17
2018-07-02T21:08:24.836Z,7.30
2018-07-02T21:10:53.120Z,6.35
2018-07-02T21:13:21.364Z,8.03
2018-07-02T21:15:49.703Z,6.87
2018-07-02T21:18:17.930Z,6.03
2018-07-02T21:20:46.211Z,6.60
2018-07-02T21:23:14.789Z,8.35
2018-07-02T21:25:43.033Z,7.22
2018-07-02T21:28:11.264Z,5.83
2018-07-02T21:30:41.399Z,5.12
2018-07-02T21:33:09.660Z,11.10
2018-07-02T21:35:37.925Z,5.22
2018-07-02T21:38:06.214Z,6.53
2018-07-02T21:40:34.487Z,5.97
2018-07-02T21:43:02.773Z,4.72
2018-07-02T21:45:31.046Z,5.17
2018-07-02T21:47:59.302Z,6.90
2018-07-02T21:50:27.545Z,3.90
2018-07-02T21:52:56.414Z,6.92
2018-07-02T21:55:24.657Z,3.98
2018-07-02T21:57:52.885Z,3.83
2018-07-02T22:00:20.917Z,4.28
2018-07-02T22:02:49.166Z,3.72
2018-07-02T22:05:17.450Z,3.95
2018-07-02T22:07:47.706Z,2.65
2018-07-02T22:10:15.937Z,3.70
2018-07-02T22:12:44.195Z,3.25
2018-07-02T22:15:12.485Z,3.05
2018-07-02T22:17:40.733Z,6.03
2018-07-02T22:20:08.994Z,4.20
2018-07-02T22:22:37.310Z,1.87
2018-07-02T22:25:05.771Z,3.62
2018-07-02T22:27:34.037Z,3.65
2018-07-02T22:30:03.010Z,3.50
2018-07-02T22:32:31.258Z,3.52
2018-07-02T22:34:59.527Z,2.75
2018-07-02T22:37:28.051Z,2.22
2018-07-02T22:39:56.283Z,2.83
2018-07-02T22:42:24.552Z,2.17
2018-07-02T22:44:52.830Z,3.98
2018-07-02T22:47:21.078Z,3.85
2018-07-02T22:49:49.358Z,2.75
2018-07-02T22:52:18.218Z,2.95
2018-07-02T22:54:46.462Z,5.33
2018-07-02T22:57:14.701Z,3.00
2018-07-02T22:59:42.955Z,2.17
2018-07-02T23:02:11.195Z,1.75
2018-07-02T23:04:39.421Z,3.83
2018-07-02T23:07:07.702Z,3.12
2018-07-02T23:09:37.486Z,4.37
2018-07-02T23:12:06.026Z,4.97
2018-07-02T23:14:34.296Z,2.52
2018-07-02T23:17:02.554Z,2.87
2018-07-02T23:19:30.786Z,2.05
2018-07-02T23:21:59.094Z,1.92
2018-07-02T23:24:27.333Z,2.65
2018-07-02T23:26:55.550Z,2.08
2018-07-02T23:29:24.005Z,2.35
2018-07-02T23:31:52.239Z,2.33
2018-07-02T23:34:20.477Z,2.33
2018-07-02T23:36:48.769Z,4.35
2018-07-02T23:39:17.002Z,2.37
2018-07-02T23:41:45.286Z,1.32
2018-07-02T23:44:13.578Z,1.30
2018-07-02T23:46:41.816Z,2.20
2018-07-02T23:49:10.027Z,1.42
2018-07-02T23:51:38.705Z,3.33
2018-07-02T23:54:06.958Z,1.65
2018-07-02T23:56:35.209Z,2.85
2018-07-02T23:59:03.540Z,1.82
